createdAt,value
2022-10-22T00:01:49.851Z,8.31
2022-10-22T00:04:57.260Z,8.29
2022-10-22T00:08:05.669Z,8.09
2022-10-22T00:11:13.631Z,8.09
2022-10-22T00:14:19.404Z,8.08
2022-10-22T00:17:25.322Z,7.96
2022-10-22T00:20:34.643Z,8.04
2022-10-22T00:23:44.139Z,8.09
2022-10-22T00:26:49.925Z,8.13
2022-10-22T00:29:55.740Z,7.93
2022-10-22T00:33:01.317Z,8.03
2022-10-22T00:36:07.630Z,7.76
2022-10-22T00:39:16.991Z,7.79
2022-10-22T00:42:29.642Z,7.74
2022-10-22T00:45:35.358Z,7.83
2022-10-22T00:48:41.112Z,7.71
2022-10-22T00:51:46.772Z,7.76
2022-10-22T00:54:55.956Z,7.62
2022-10-22T00:58:02.987Z,7.78
2022-10-22T01:01:15.844Z,7.61
2022-10-22T01:04:23.315Z,7.58
2022-10-22T01:07:29.854Z,7.60
2022-10-22T01:11:00.629Z,7.39
2022-10-22T01:14:23.259Z,7.45
2022-10-22T01:17:43.920Z,7.36
2022-10-22T01:21:18.311Z,7.32
2022-10-22T01:24:45.175Z,7.34
2022-10-22T01:28:14.387Z,7.38
2022-10-22T01:31:28.281Z,7.32
2022-10-22T01:34:37.438Z,7.32
2022-10-22T01:37:51.994Z,7.48
2022-10-22T01:40:59.593Z,7.48
2022-10-22T01:44:05.331Z,7.43
2022-10-22T01:47:26.025Z,7.60
2022-10-22T01:51:07.208Z,7.60
2022-10-22T01:54:36.302Z,7.66
2022-10-22T01:57:58.236Z,7.71
2022-10-22T02:01:18.410Z,7.66
2022-10-22T02:04:37.032Z,7.63
2022-10-22T02:07:50.195Z,7.40
2022-10-22T02:10:59.062Z,7.47
2022-10-22T02:14:16.715Z,7.48
2022-10-22T02:17:25.518Z,7.54
2022-10-22T02:20:38.854Z,7.49
2022-10-22T02:23:44.881Z,7.56
2022-10-22T02:27:06.288Z,7.59
2022-10-22T02:30:19.730Z,7.49
2022-10-22T02:33:35.111Z,7.64
2022-10-22T02:36:49.676Z,7.63
2022-10-22T02:39:59.109Z,7.67
2022-10-22T02:43:08.857Z,7.63
2022-10-22T02:46:15.673Z,7.60
2022-10-22T02:49:21.625Z,7.61
2022-10-22T02:52:30.031Z,7.37
2022-10-22T02:55:35.588Z,7.38
2022-10-22T02:58:41.180Z,7.41
2022-10-22T03:01:46.909Z,7.37
2022-10-22T03:04:52.979Z,7.37
2022-10-22T03:08:01.272Z,7.45
2022-10-22T03:11:06.931Z,7.43
2022-10-22T03:14:12.697Z,7.54
2022-10-22T03:17:18.351Z,7.52
2022-10-22T03:20:23.916Z,7.53
2022-10-22T03:23:32.317Z,7.52
2022-10-22T03:26:40.162Z,7.64
2022-10-22T03:29:47.321Z,7.65
2022-10-22T03:32:52.861Z,7.74
2022-10-22T03:35:58.783Z,7.71
2022-10-22T03:39:08.686Z,7.77
2022-10-22T03:42:14.788Z,7.79
2022-10-22T03:45:20.673Z,7.85
2022-10-22T03:48:26.520Z,7.81
2022-10-22T03:51:33.094Z,7.71
2022-10-22T03:54:42.758Z,7.66
2022-10-22T03:57:48.665Z,7.80
2022-10-22T04:00:54.473Z,7.64
2022-10-22T04:04:01.803Z,7.55
2022-10-22T04:07:11.789Z,7.66
2022-10-22T04:10:20.447Z,7.64
2022-10-22T04:13:26.239Z,7.57
2022-10-22T04:16:34.026Z,7.68
2022-10-22T04:19:39.881Z,7.62
2022-10-22T04:22:45.567Z,7.64
2022-10-22T04:25:53.821Z,7.59
2022-10-22T04:28:59.460Z,7.64
2022-10-22T04:32:05.202Z,7.55
2022-10-22T04:35:11.823Z,7.58
2022-10-22T04:38:19.343Z,7.53
2022-10-22T04:41:30.627Z,7.51
2022-10-22T04:44:36.506Z,7.50
2022-10-22T04:47:42.566Z,7.43
2022-10-22T04:50:50.071Z,7.48
2022-10-22T04:53:56.403Z,7.56
2022-10-22T04:57:04.843Z,7.46
2022-10-22T05:00:13.074Z,7.43
2022-10-22T05:03:18.616Z,7.31
2022-10-22T05:06:26.259Z,7.11
2022-10-22T05:09:45.986Z,7.00
2022-10-22T05:12:55.341Z,6.94
2022-10-22T05:16:05.247Z,6.88
2022-10-22T05:19:12.922Z,6.86
2022-10-22T05:22:18.856Z,6.77
2022-10-22T05:25:24.535Z,6.77
2022-10-22T05:28:32.782Z,6.80
2022-10-22T05:31:39.135Z,6.77
2022-10-22T05:34:44.686Z,6.76
2022-10-22T05:37:51.042Z,6.85
2022-10-22T05:41:04.559Z,6.89
2022-10-22T05:44:16.131Z,7.05
2022-10-22T05:47:21.707Z,7.04
2022-10-22T05:50:27.256Z,7.09
2022-10-22T05:53:32.969Z,7.19
2022-10-22T05:56:39.652Z,7.29
2022-10-22T05:59:47.834Z,7.32
2022-10-22T06:02:54.398Z,7.47
2022-10-22T06:06:00.124Z,7.57
2022-10-22T06:09:09.839Z,7.62
2022-10-22T06:12:15.507Z,7.76
2022-10-22T06:15:25.279Z,7.79
2022-10-22T06:18:36.839Z,8.07
2022-10-22T06:21:42.775Z,8.25
2022-10-22T06:24:48.337Z,8.29
2022-10-22T06:27:55.144Z,8.35
2022-10-22T06:31:07.326Z,8.39
2022-10-22T06:34:19.042Z,8.36
2022-10-22T06:37:24.717Z,8.34
2022-10-22T06:40:36.244Z,8.22
2022-10-22T06:43:42.617Z,8.20
2022-10-22T06:46:53.553Z,8.39
2022-10-22T06:49:59.073Z,8.37
2022-10-22T06:53:06.412Z,8.52
2022-10-22T06:56:16.084Z,8.55
2022-10-22T06:59:22.110Z,8.61
2022-10-22T07:02:49.025Z,8.43
2022-10-22T07:06:05.265Z,8.65
2022-10-22T07:09:22.806Z,8.62
2022-10-22T07:12:30.263Z,8.78
2022-10-22T07:15:36.151Z,9.02
2022-10-22T07:18:52.923Z,8.66
2022-10-22T07:22:01.043Z,8.92
2022-10-22T07:25:09.308Z,8.88
2022-10-22T07:28:15.333Z,8.90
2022-10-22T07:31:22.057Z,8.84
2022-10-22T07:34:30.451Z,9.03
2022-10-22T07:37:36.299Z,9.17
2022-10-22T07:40:41.969Z,9.43
2022-10-22T07:43:50.591Z,9.24
2022-10-22T07:46:59.195Z,9.37
2022-10-22T07:50:09.565Z,9.64
2022-10-22T07:53:15.121Z,9.62
2022-10-22T07:56:20.807Z,9.55
2022-10-22T07:59:26.575Z,9.56
2022-10-22T08:02:32.379Z,9.51
2022-10-22T08:05:40.825Z,9.67
2022-10-22T08:08:48.781Z,9.79
2022-10-22T08:11:54.935Z,9.91
2022-10-22T08:15:11.749Z,10.05
2022-10-22T08:18:17.565Z,10.07
2022-10-22T08:21:26.016Z,9.72
2022-10-22T08:24:32.123Z,9.67
2022-10-22T08:27:38.221Z,9.80
2022-10-22T08:30:46.555Z,9.70
2022-10-22T08:33:52.287Z,9.83
2022-10-22T08:37:00.886Z,9.53
2022-10-22T08:40:08.514Z,9.38
2022-10-22T08:43:54.918Z,9.31
2022-10-22T08:47:34.839Z,9.45
2022-10-22T08:50:49.196Z,9.38
2022-10-22T08:54:31.928Z,9.33
2022-10-22T08:58:00.821Z,9.41
2022-10-22T09:01:16.734Z,9.55
2022-10-22T09:04:31.608Z,9.89
2022-10-22T09:07:44.084Z,10.09
2022-10-22T09:11:01.477Z,10.28
2022-10-22T09:14:08.608Z,10.21
2022-10-22T09:17:24.543Z,10.26
2022-10-22T09:20:46.828Z,10.34
2022-10-22T09:24:07.686Z,10.37
2022-10-22T09:27:20.107Z,10.23
2022-10-22T09:30:29.880Z,10.24
2022-10-22T09:33:35.675Z,10.02
2022-10-22T09:36:41.449Z,10.18
2022-10-22T09:39:51.462Z,10.36
2022-10-22T09:42:59.651Z,10.41
2022-10-22T09:46:09.192Z,10.56
2022-10-22T09:49:20.642Z,10.55
2022-10-22T09:52:38.486Z,10.49
2022-10-22T09:55:46.432Z,10.49
2022-10-22T09:58:55.527Z,10.53
2022-10-22T10:02:20.041Z,10.62
2022-10-22T10:05:41.473Z,10.80
2022-10-22T10:08:47.271Z,10.91
2022-10-22T10:12:09.751Z,10.77
2022-10-22T10:15:34.173Z,10.84
2022-10-22T10:19:14.087Z,11.00
2022-10-22T10:22:45.085Z,10.79
2022-10-22T10:26:04.212Z,10.77
2022-10-22T10:29:30.744Z,10.87
2022-10-22T10:33:05.177Z,10.92
2022-10-22T10:36:25.859Z,10.92
2022-10-22T10:39:58.616Z,11.03
2022-10-22T10:43:14.013Z,10.87
2022-10-22T10:46:37.373Z,10.82
2022-10-22T10:49:49.259Z,10.47
2022-10-22T10:53:16.176Z,10.13
2022-10-22T10:56:42.673Z,10.00
2022-10-22T11:00:04.826Z,10.06
2022-10-22T11:04:03.229Z,10.14
2022-10-22T11:07:34.366Z,10.15
2022-10-22T11:10:48.300Z,10.20
2022-10-22T11:14:03.336Z,10.35
2022-10-22T11:17:20.001Z,10.01
2022-10-22T11:20:40.718Z,9.97
2022-10-22T11:23:58.823Z,10.14
2022-10-22T11:27:20.475Z,10.53
2022-10-22T11:30:31.582Z,10.45
2022-10-22T11:33:48.424Z,10.26
2022-10-22T11:36:58.544Z,10.60
2022-10-22T11:40:17.222Z,10.67
2022-10-22T11:43:36.076Z,10.59
2022-10-22T11:46:56.738Z,10.48
2022-10-22T11:50:22.974Z,10.60
2022-10-22T11:53:36.508Z,10.56
2022-10-22T11:56:46.260Z,10.72
2022-10-22T11:59:56.795Z,10.55
2022-10-22T12:03:07.799Z,10.42
2022-10-22T12:06:25.417Z,10.22
2022-10-22T12:09:35.315Z,10.04
2022-10-22T12:12:43.675Z,9.96
2022-10-22T12:15:56.378Z,9.91
2022-10-22T12:19:15.868Z,9.91
2022-10-22T12:22:27.027Z,10.26
2022-10-22T12:25:36.808Z,10.15
2022-10-22T12:28:45.624Z,10.16
2022-10-22T12:31:51.435Z,10.16
2022-10-22T12:34:57.063Z,10.18
2022-10-22T12:38:07.843Z,10.18
2022-10-22T12:41:13.784Z,10.18
2022-10-22T12:44:22.910Z,10.03
2022-10-22T12:47:28.677Z,9.94
2022-10-22T12:50:43.327Z,10.05
2022-10-22T12:53:54.384Z,10.24
2022-10-22T12:57:01.530Z,10.43
2022-10-22T13:00:26.595Z,10.40
2022-10-22T13:03:38.691Z,10.31
2022-10-22T13:06:49.357Z,10.42
2022-10-22T13:10:02.823Z,10.17
2022-10-22T13:13:09.274Z,10.15
2022-10-22T13:16:28.136Z,9.96
2022-10-22T13:19:43.600Z,9.76
2022-10-22T13:23:02.973Z,9.63
2022-10-22T13:26:20.006Z,9.67
2022-10-22T13:29:28.334Z,9.80
2022-10-22T13:32:37.621Z,9.69
2022-10-22T13:35:43.338Z,9.57
2022-10-22T13:38:49.688Z,9.36
2022-10-22T13:41:55.381Z,9.29
2022-10-22T13:45:00.994Z,9.45
2022-10-22T13:48:15.845Z,9.32
2022-10-22T13:51:26.358Z,9.22
2022-10-22T13:54:32.105Z,9.20
2022-10-22T13:57:37.710Z,9.10
2022-10-22T14:00:49.263Z,8.88
2022-10-22T14:04:03.104Z,8.89
2022-10-22T14:07:16.814Z,8.86
2022-10-22T14:10:26.344Z,8.90
2022-10-22T14:13:32.091Z,8.99
2022-10-22T14:16:40.531Z,9.05
2022-10-22T14:19:52.440Z,8.95
2022-10-22T14:23:05.184Z,8.87
2022-10-22T14:26:15.570Z,8.96
2022-10-22T14:29:21.162Z,8.98
2022-10-22T14:32:26.889Z,8.93
2022-10-22T14:35:35.107Z,8.99
2022-10-22T14:38:40.904Z,9.14
2022-10-22T14:41:46.926Z,9.02
2022-10-22T14:44:52.982Z,9.04
2022-10-22T14:47:58.880Z,9.11
2022-10-22T14:51:07.562Z,9.15
2022-10-22T14:54:13.292Z,9.18
2022-10-22T14:57:19.006Z,9.16
2022-10-22T15:00:25.578Z,9.10
2022-10-22T15:03:31.747Z,8.92
2022-10-22T15:06:40.166Z,9.07
2022-10-22T15:09:46.215Z,9.09
2022-10-22T15:12:51.754Z,8.96
2022-10-22T15:15:57.460Z,8.75
2022-10-22T15:19:03.058Z,8.79
2022-10-22T15:22:11.273Z,8.80
2022-10-22T15:25:18.001Z,8.97
2022-10-22T15:28:23.927Z,8.88
2022-10-22T15:31:51.407Z,8.82
2022-10-22T15:34:59.171Z,8.68
2022-10-22T15:38:09.443Z,8.70
2022-10-22T15:41:16.237Z,8.73
2022-10-22T15:44:25.377Z,8.80
2022-10-22T15:47:31.644Z,8.93
2022-10-22T15:50:41.878Z,8.75
2022-10-22T15:53:56.206Z,8.83
2022-10-22T15:57:08.733Z,8.82
2022-10-22T16:00:16.363Z,8.74
2022-10-22T16:03:22.095Z,8.79
2022-10-22T16:06:27.734Z,8.53
2022-10-22T16:09:44.980Z,8.60
2022-10-22T16:12:51.883Z,8.71
2022-10-22T16:15:57.849Z,8.74
2022-10-22T16:19:04.192Z,8.48
2022-10-22T16:22:11.647Z,8.50
2022-10-22T16:25:20.069Z,8.59
2022-10-22T16:28:28.157Z,8.64
2022-10-22T16:31:34.013Z,8.74
2022-10-22T16:34:39.684Z,8.80
2022-10-22T16:37:50.096Z,8.80
2022-10-22T16:41:16.552Z,8.57
2022-10-22T16:44:22.396Z,8.52
2022-10-22T16:47:28.155Z,8.56
2022-10-22T16:50:36.338Z,8.59
2022-10-22T16:53:42.022Z,8.48
2022-10-22T16:56:50.414Z,8.40
2022-10-22T16:59:56.130Z,8.52
2022-10-22T17:03:02.168Z,8.45
2022-10-22T17:06:12.748Z,8.34
2022-10-22T17:13:18.350Z,8.25
2022-10-22T17:16:27.113Z,8.16
2022-10-22T17:19:34.450Z,8.12
2022-10-22T17:22:40.739Z,8.21
2022-10-22T17:25:53.019Z,8.08
2022-10-22T17:29:02.118Z,8.13
2022-10-22T17:32:10.084Z,8.15
2022-10-22T17:35:20.108Z,8.18
2022-10-22T17:38:26.088Z,8.19
2022-10-22T17:41:36.243Z,8.35
2022-10-22T17:44:44.715Z,8.44
2022-10-22T17:47:52.194Z,8.60
2022-10-22T17:50:59.301Z,8.59
2022-10-22T17:54:07.487Z,8.51
2022-10-22T17:57:16.602Z,8.51
2022-10-22T18:00:25.154Z,8.40
2022-10-22T18:03:31.012Z,8.38
2022-10-22T18:06:38.388Z,8.34
2022-10-22T18:09:45.557Z,8.52
2022-10-22T18:12:51.368Z,8.45
2022-10-22T18:16:02.715Z,8.50
2022-10-22T18:19:08.418Z,8.39
2022-10-22T18:22:14.199Z,8.39
2022-10-22T18:25:20.116Z,8.62
2022-10-22T18:28:25.961Z,8.44
2022-10-22T18:31:34.305Z,8.32
2022-10-22T18:34:40.172Z,8.43
2022-10-22T18:37:46.022Z,8.35
2022-10-22T18:40:53.349Z,8.52
2022-10-22T18:44:02.590Z,8.40
2022-10-22T18:47:13.138Z,8.52
2022-10-22T18:50:19.386Z,8.38
2022-10-22T18:53:25.219Z,8.47
2022-10-22T18:56:41.208Z,8.62
2022-10-22T18:59:46.829Z,8.71
2022-10-22T19:02:55.208Z,8.59
2022-10-22T19:06:01.101Z,8.78
2022-10-22T19:09:09.485Z,8.82
2022-10-22T19:12:16.053Z,8.77
2022-10-22T19:15:21.822Z,8.82
2022-10-22T19:18:36.194Z,8.88
2022-10-22T19:21:41.780Z,8.99
2022-10-22T19:24:48.152Z,9.05
2022-10-22T19:27:59.583Z,9.10
2022-10-22T19:31:08.048Z,9.22
2022-10-22T19:34:17.305Z,9.17
2022-10-22T19:37:23.089Z,9.21
2022-10-22T19:40:28.967Z,9.23
2022-10-22T19:43:34.756Z,9.23
2022-10-22T19:46:40.734Z,9.37
2022-10-22T19:49:49.103Z,9.36
2022-10-22T19:52:54.707Z,9.43
2022-10-22T19:56:01.166Z,9.49
2022-10-22T19:59:09.194Z,9.48
2022-10-22T20:02:22.550Z,9.49
2022-10-22T20:05:30.904Z,9.54
2022-10-22T20:08:38.273Z,9.52
2022-10-22T20:11:44.232Z,9.39
2022-10-22T20:14:49.938Z,9.29
2022-10-22T20:17:55.871Z,9.13
2022-10-22T20:21:15.194Z,8.95
2022-10-22T20:24:20.862Z,8.79
2022-10-22T20:27:26.588Z,8.72
2022-10-22T20:30:32.207Z,8.68
2022-10-22T20:33:39.245Z,8.85
2022-10-22T20:36:48.063Z,8.82
2022-10-22T20:39:59.205Z,9.01
2022-10-22T20:43:08.563Z,9.12
2022-10-22T20:46:29.340Z,9.16
2022-10-22T20:49:40.070Z,9.04
2022-10-22T20:52:48.308Z,9.09
2022-10-22T20:55:59.768Z,9.07
2022-10-22T20:59:08.542Z,9.12
2022-10-22T21:02:17.344Z,9.04
2022-10-22T21:05:22.974Z,8.98
2022-10-22T21:08:31.194Z,8.99
2022-10-22T21:11:42.061Z,9.14
2022-10-22T21:14:49.200Z,9.27
2022-10-22T21:17:54.770Z,9.18
2022-10-22T21:21:00.332Z,9.01
2022-10-22T21:24:09.127Z,9.06
2022-10-22T21:27:14.718Z,9.24
2022-10-22T21:30:20.519Z,9.30
2022-10-22T21:33:29.206Z,9.17
2022-10-22T21:36:34.877Z,9.03
2022-10-22T21:39:43.122Z,9.31
2022-10-22T21:42:48.722Z,9.29
2022-10-22T21:45:54.377Z,8.97
2022-10-22T21:49:08.523Z,9.04
2022-10-22T21:52:16.558Z,8.99
2022-10-22T21:55:24.851Z,8.97
2022-10-22T21:58:30.488Z,9.14
2022-10-22T22:01:43.102Z,8.94
2022-10-22T22:04:51.509Z,8.92
2022-10-22T22:07:57.135Z,8.76
2022-10-22T22:11:11.778Z,8.78
2022-10-22T22:14:17.642Z,8.84
2022-10-22T22:17:23.239Z,8.76
2022-10-22T22:20:29.091Z,8.93
2022-10-22T22:23:35.398Z,8.68
2022-10-22T22:26:44.010Z,8.89
2022-10-22T22:29:49.716Z,9.01
2022-10-22T22:32:55.329Z,8.87
2022-10-22T22:36:04.007Z,8.96
2022-10-22T22:39:15.405Z,8.91
2022-10-22T22:42:23.774Z,8.82
2022-10-22T22:45:29.332Z,8.83
2022-10-22T22:48:39.137Z,8.65
2022-10-22T22:51:45.151Z,8.70
2022-10-22T22:54:51.102Z,8.71
2022-10-22T22:57:59.361Z,8.73
2022-10-22T23:01:18.394Z,8.77
2022-10-22T23:04:26.506Z,8.79
2022-10-22T23:07:32.076Z,8.87
2022-10-22T23:10:37.698Z,9.05
2022-10-22T23:13:46.869Z,9.07
2022-10-22T23:16:56.124Z,9.15
2022-10-22T23:20:01.801Z,9.17
2022-10-22T23:23:08.618Z,9.22
2022-10-22T23:26:15.767Z,9.21
2022-10-22T23:29:27.042Z,9.27
2022-10-22T23:32:32.785Z,9.32
2022-10-22T23:35:41.482Z,9.34
2022-10-22T23:38:47.414Z,9.30
2022-10-22T23:41:53.655Z,9.31
2022-10-22T23:45:01.847Z,9.36
2022-10-22T23:48:07.976Z,9.39
2022-10-22T23:51:17.632Z,9.33
2022-10-22T23:54:23.252Z,9.34
2022-10-22T23:57:28.998Z,9.40
